createdAt,value
2022-10-09T00:00:21.082Z,9.2
2022-10-09T00:05:26.213Z,9.6
2022-10-09T00:10:31.362Z,9.2
2022-10-09T00:15:36.509Z,9.2
2022-10-09T00:20:41.557Z,8.9
2022-10-09T00:25:46.659Z,9.2
2022-10-09T00:30:51.792Z,9.2
2022-10-09T00:35:57.919Z,9.2
2022-10-09T00:41:03.986Z,8.9
2022-10-09T00:46:10.091Z,9.2
2022-10-09T00:51:16.170Z,8.9
2022-10-09T00:56:22.271Z,9.2
2022-10-09T01:01:28.384Z,8.9
2022-10-09T01:06:34.480Z,9.6
2022-10-09T01:11:40.561Z,8.9
2022-10-09T01:16:46.663Z,9.2
2022-10-09T01:21:52.756Z,8.6
2022-10-09T01:26:58.924Z,9.6
2022-10-09T01:32:04.954Z,8.9
2022-10-09T01:37:10.078Z,8.9
2022-10-09T01:42:16.173Z,8.9
2022-10-09T01:47:22.314Z,8.9
2022-10-09T01:52:28.377Z,8.9
2022-10-09T01:57:34.454Z,8.9
2022-10-09T02:02:40.610Z,8.6
2022-10-09T02:07:46.677Z,8.6
2022-10-09T02:12:51.770Z,8.9
2022-10-09T02:17:56.929Z,8.9
2022-10-09T02:23:02.014Z,8.9
2022-10-09T02:28:07.265Z,8.9
2022-10-09T02:33:13.231Z,8.6
2022-10-09T02:38:19.317Z,8.6
2022-10-09T02:43:25.425Z,8.9
2022-10-09T02:48:31.532Z,8.6
2022-10-09T02:53:37.629Z,8.3
2022-10-09T02:58:43.728Z,8.6
2022-10-09T03:03:49.812Z,8.6
2022-10-09T03:08:55.962Z,8.6
2022-10-09T03:14:02.006Z,8.6
2022-10-09T03:19:08.122Z,8.6
2022-10-09T03:24:14.226Z,8.3
2022-10-09T03:29:20.311Z,8.3
2022-10-09T03:34:25.456Z,8.6
2022-10-09T03:39:31.529Z,8.6
2022-10-09T03:44:37.670Z,8.3
2022-10-09T03:49:43.734Z,8
2022-10-09T03:54:49.823Z,8.3
2022-10-09T03:59:55.935Z,8.3
2022-10-09T04:05:02.017Z,8.3
2022-10-09T04:10:07.245Z,8
2022-10-09T04:15:12.242Z,8
2022-10-09T04:20:17.386Z,8
2022-10-09T04:25:22.497Z,8
2022-10-09T04:30:28.634Z,7.6
2022-10-09T04:35:34.697Z,8
2022-10-09T04:40:40.794Z,7.6
2022-10-09T04:45:46.892Z,8
2022-10-09T04:50:52.985Z,8.3
2022-10-09T04:55:59.067Z,8
2022-10-09T05:01:05.192Z,8.6
2022-10-09T05:06:11.274Z,8
2022-10-09T05:11:17.366Z,8
2022-10-09T05:16:23.486Z,8
2022-10-09T05:21:29.611Z,8.6
2022-10-09T05:26:35.684Z,8
2022-10-09T05:31:40.789Z,7.6
2022-10-09T05:36:46.879Z,8
2022-10-09T05:41:52.991Z,8.3
2022-10-09T05:46:59.083Z,7.6
2022-10-09T05:52:05.194Z,7.6
2022-10-09T05:57:11.277Z,7.6
2022-10-09T06:02:17.374Z,7.6
2022-10-09T06:07:22.494Z,7.6
2022-10-09T06:12:27.619Z,8
2022-10-09T06:17:32.764Z,7.6
2022-10-09T06:22:37.849Z,8
2022-10-09T06:27:44.069Z,8
2022-10-09T06:32:50.154Z,8.3
2022-10-09T06:37:56.180Z,8.6
2022-10-09T06:43:02.271Z,8
2022-10-09T06:48:08.348Z,8
2022-10-09T06:53:14.445Z,8.3
2022-10-09T06:58:20.534Z,8
2022-10-09T07:03:26.652Z,8.3
2022-10-09T07:08:32.756Z,8.6
2022-10-09T07:13:38.924Z,8.3
2022-10-09T07:18:44.945Z,8.3
2022-10-09T07:23:51.056Z,8.6
2022-10-09T07:28:56.140Z,9.2
2022-10-09T07:34:02.356Z,8.3
2022-10-09T07:39:08.348Z,8.9
2022-10-09T07:44:14.441Z,9.2
2022-10-09T07:49:20.537Z,9.9
2022-10-09T07:54:26.669Z,9.9
2022-10-09T07:59:32.721Z,10.2
2022-10-09T08:04:37.919Z,10.2
2022-10-09T08:09:42.947Z,11.2
2022-10-09T08:14:49.052Z,11.5
2022-10-09T08:19:55.186Z,11.8
2022-10-09T08:25:01.301Z,11.8
2022-10-09T08:30:07.342Z,11.8
2022-10-09T08:35:13.606Z,11.8
2022-10-09T08:40:19.536Z,11.2
2022-10-09T08:45:25.648Z,11.5
2022-10-09T08:50:31.764Z,12.1
2022-10-09T08:55:37.934Z,11.8
2022-10-09T09:00:43.929Z,11.8
2022-10-09T09:05:50.014Z,11.5
2022-10-09T09:10:56.109Z,11.5
2022-10-09T09:16:01.229Z,11.8
2022-10-09T09:21:07.350Z,11.5
2022-10-09T09:26:13.405Z,11.5
2022-10-09T09:31:19.542Z,11.8
2022-10-09T09:36:25.600Z,12.5
2022-10-09T09:41:31.689Z,12.5
2022-10-09T09:46:37.835Z,11.8
2022-10-09T09:51:42.925Z,12.1
2022-10-09T09:56:48.025Z,12.1
2022-10-09T10:01:53.135Z,12.1
2022-10-09T10:12:04.366Z,12.8
2022-10-09T10:17:10.443Z,13.1
2022-10-09T10:22:16.539Z,12.5
2022-10-09T10:27:22.643Z,12.8
2022-10-09T10:32:28.739Z,12.8
2022-10-09T10:37:34.843Z,12.5
2022-10-09T10:42:40.917Z,13.1
2022-10-09T10:47:47.054Z,13.4
2022-10-09T10:52:53.149Z,13.4
2022-10-09T10:57:59.292Z,13.1
2022-10-09T11:03:05.441Z,13.1
2022-10-09T11:08:11.424Z,13.1
2022-10-09T11:13:16.505Z,12.5
2022-10-09T11:18:22.602Z,12.8
2022-10-09T11:23:28.742Z,12.5
2022-10-09T11:28:34.793Z,12.5
2022-10-09T11:33:40.937Z,12.5
2022-10-09T11:38:47.064Z,12.5
2022-10-09T11:43:53.106Z,12.1
2022-10-09T11:48:59.180Z,12.5
2022-10-09T11:54:04.321Z,12.5
2022-10-09T11:59:09.521Z,12.1
2022-10-09T12:04:14.535Z,12.5
2022-10-09T12:09:19.683Z,12.5
2022-10-09T12:14:24.858Z,12.5
2022-10-09T12:19:29.883Z,12.5
2022-10-09T12:24:34.965Z,12.8
2022-10-09T12:29:40.124Z,12.5
2022-10-09T12:34:46.183Z,13.1
2022-10-09T12:39:52.318Z,13.1
2022-10-09T12:44:58.408Z,12.5
2022-10-09T12:50:04.466Z,12.8
2022-10-09T12:55:10.579Z,12.5
2022-10-09T13:00:16.663Z,12.5
2022-10-09T13:05:22.844Z,12.8
2022-10-09T13:10:28.852Z,12.5
2022-10-09T13:15:34.958Z,12.8
2022-10-09T13:20:41.059Z,12.8
2022-10-09T13:25:47.146Z,12.5
2022-10-09T13:30:53.249Z,12.8
2022-10-09T13:35:58.350Z,12.8
2022-10-09T13:41:04.447Z,13.4
2022-10-09T13:46:10.541Z,12.8
2022-10-09T13:51:16.642Z,13.1
2022-10-09T13:56:22.725Z,12.5
2022-10-09T14:01:28.837Z,13.4
2022-10-09T14:06:34.989Z,13.4
2022-10-09T14:11:40.042Z,13.4
2022-10-09T14:16:45.159Z,13.4
2022-10-09T14:21:50.287Z,14.1
2022-10-09T14:26:55.387Z,14.1
2022-10-09T14:32:01.487Z,14.7
2022-10-09T14:37:07.573Z,15
2022-10-09T14:42:13.668Z,15
2022-10-09T14:47:19.766Z,15.4
2022-10-09T14:52:25.861Z,15
2022-10-09T14:57:31.965Z,14.7
2022-10-09T15:02:38.049Z,14.4
2022-10-09T15:07:44.152Z,13.8
2022-10-09T15:12:50.238Z,13.8
2022-10-09T15:17:56.346Z,13.8
2022-10-09T15:23:02.431Z,13.4
2022-10-09T15:28:08.527Z,13.4
2022-10-09T15:33:13.628Z,13.4
2022-10-09T15:38:19.721Z,13.8
2022-10-09T15:43:25.835Z,13.4
2022-10-09T15:48:31.930Z,13.1
2022-10-09T15:53:38.042Z,12.8
2022-10-09T15:58:44.122Z,12.8
2022-10-09T16:03:50.230Z,12.8
2022-10-09T16:08:55.338Z,12.8
2022-10-09T16:14:17.742Z,12.8
2022-10-09T16:19:06.886Z,12.5
2022-10-09T16:24:11.666Z,12.5
2022-10-09T16:29:16.790Z,12.8
2022-10-09T16:34:22.876Z,12.5
2022-10-09T16:39:28.966Z,12.1
2022-10-09T16:44:35.059Z,12.1
2022-10-09T16:49:41.158Z,11.8
2022-10-09T16:54:47.258Z,12.1
2022-10-09T16:59:53.357Z,12.1
2022-10-09T17:04:59.453Z,11.8
2022-10-09T17:10:05.559Z,11.8
2022-10-09T17:15:11.639Z,11.8
2022-10-09T17:20:17.750Z,12.1
2022-10-09T17:25:23.855Z,12.1
2022-10-09T17:30:29.939Z,11.8
2022-10-09T17:35:35.048Z,11.8
2022-10-09T17:40:41.161Z,12.1
2022-10-09T17:45:47.234Z,11.8
2022-10-09T17:50:53.345Z,11.8
2022-10-09T17:55:59.463Z,11.5
2022-10-09T18:01:05.532Z,11.5
2022-10-09T18:06:11.622Z,11.5
2022-10-09T18:11:16.777Z,11.5
2022-10-09T18:16:21.868Z,11.2
2022-10-09T18:21:27.957Z,11.2
2022-10-09T18:26:34.063Z,11.5
2022-10-09T18:31:40.156Z,11.5
2022-10-09T18:36:46.247Z,12.1
2022-10-09T18:41:52.344Z,11.2
2022-10-09T18:46:58.449Z,11.2
2022-10-09T18:52:04.529Z,11.2
2022-10-09T18:57:10.631Z,11.2
2022-10-09T19:02:16.727Z,11.2
2022-10-09T19:07:22.823Z,10.9
2022-10-09T19:12:28.928Z,10.9
2022-10-09T19:17:35.009Z,11.2
2022-10-09T19:22:40.118Z,10.9
2022-10-09T19:27:46.221Z,11.2
2022-10-09T19:32:52.333Z,10.9
2022-10-09T19:37:58.422Z,10.9
2022-10-09T19:43:04.512Z,10.9
2022-10-09T19:48:10.615Z,10.9
2022-10-09T19:53:16.715Z,10.9
2022-10-09T19:58:21.825Z,11.2
2022-10-09T20:03:26.956Z,10.5
2022-10-09T20:08:32.067Z,10.5
2022-10-09T20:13:37.176Z,10.9
2022-10-09T20:18:43.274Z,10.9
2022-10-09T20:23:49.364Z,10.5
2022-10-09T20:34:01.572Z,10.9
2022-10-09T20:39:07.666Z,10.5
2022-10-09T20:44:13.757Z,10.2
2022-10-09T20:49:19.852Z,10.2
2022-10-09T20:54:25.965Z,10.2
2022-10-09T20:59:32.044Z,10.2
2022-10-09T21:04:38.139Z,9.9
2022-10-09T21:09:44.238Z,9.9
2022-10-09T21:14:50.352Z,9.9
2022-10-09T21:19:55.456Z,9.9
2022-10-09T21:25:01.557Z,10.2
2022-10-09T21:30:07.653Z,10.2
2022-10-09T21:35:13.754Z,10.2
2022-10-09T21:40:19.882Z,10.2
2022-10-09T21:45:25.945Z,9.6
2022-10-09T21:50:32.039Z,9.6
2022-10-09T21:55:38.144Z,9.9
2022-10-09T22:00:43.266Z,9.9
2022-10-09T22:05:48.373Z,9.6
2022-10-09T22:10:53.505Z,9.9
2022-10-09T22:15:58.624Z,9.6
2022-10-09T22:21:04.718Z,9.9
2022-10-09T22:26:10.802Z,9.6
2022-10-09T22:31:16.907Z,9.2
2022-10-09T22:36:22.987Z,9.2
2022-10-09T22:41:29.086Z,9.6
2022-10-09T22:46:35.192Z,9.2
2022-10-09T22:51:41.294Z,9.6
2022-10-09T22:56:47.403Z,9.6
2022-10-09T23:01:53.569Z,9.2
2022-10-09T23:06:59.577Z,9.2
2022-10-09T23:12:05.686Z,9.6
2022-10-09T23:17:11.782Z,9.2
2022-10-09T23:22:16.903Z,9.6
2022-10-09T23:27:22.983Z,9.2
2022-10-09T23:32:29.082Z,9.2
2022-10-09T23:37:35.195Z,9.6
2022-10-09T23:42:41.312Z,9.2
2022-10-09T23:47:47.392Z,9.2
2022-10-09T23:52:53.479Z,8.9
2022-10-09T23:57:58.610Z,9.2
